Ana Sayfa
METAR-TAF:

METAR-TAF

Havaalanları :

Trat, Tayland

Enlem: 12-16-28N, Boylam: 102-19-08E, yükseklik: 32 m

Güncel hava durumu gözlemi

Rapor saat 08:00 UTC de 39 dakika önce yapıldı.
Rüzgar kuzey/kuzeydoğudan 6 kt
Sıcaklık 34°C
Nem 53%
Basınç 1008 hPa
Görüş mesafesi: 8000 m
2400 ft yükseklikte az bulutlu

METAR: VTBO 120800Z 02006KT 8000 FEW024 34/23 Q1008

Saat: 15:39 (08:39 UTC)

Tahmin

Rapor saat 05:00 UTC de 3 saat ve 39 dakika önce yapıldı.
Ayın 12'si saat 06 UTC'den ayın 13'si saat 06 UTC'ye kadar geçerli Tahmin
Rüzgar kuzey/kuzeydoğudan 8 kt
Görüş mesafesi: 7000 m
3000 ft yükseklikte az bulutlu
Dönüşüyor
ayın 12'si saat 20 UTC'den ayın 12'si saat 22 UTC'ye kadar
Rüzgar kuzeydan kt
Görüş mesafesi: 4000 m
Pus
Dönüşüyor
ayın 13'si saat 01 UTC'den ayın 13'si saat 03 UTC'ye kadar
Rüzgar kuzey/kuzeydoğudan 5 kt
Görüş mesafesi: 7000 m

TAF: VTBO 120500Z 1206/1306 02008KT 7000 FEW030 BECMG 1220/1222 00000KT 4000 BR BECMG 1301/1303 02005KT 7000 NSW

4.000'den fazla havaalanı için hava durumu gözlemleri ve tahminleri (METAR ve TAF raporları).

Kullanılabilir istasyonlar harita üzerinde sarı ve kırmızı noktalarla gösterilir.

İstasyonun adını görmek için fareyi noktanın üzerinde gezdirin.

Sonrasında hava gözlem ve tahminlerini görmek için tıklayın.

Haritayı değiştirmek için: yaklaştırmak için siyah artı işaretli yeşil düğmeye ve uzaklaştırmak için de eksi işaretli düğmeye hızla tıklayın; bitişik haritalar için yeşil okları kullanın.


METAR-TAF: